createdAt,value
2023-04-23T00:00:58.093Z,336.87
2023-04-23T00:03:24.854Z,336.00
2023-04-23T00:05:51.648Z,336.61
2023-04-23T00:08:18.205Z,335.31
2023-04-23T00:10:44.761Z,341.36
2023-04-23T00:13:11.288Z,333.69
2023-04-23T00:15:37.820Z,335.06
2023-04-23T00:18:04.255Z,331.28
2023-04-23T00:20:30.785Z,328.13
2023-04-23T00:22:57.381Z,335.39
2023-04-23T00:25:23.897Z,332.74
2023-04-23T00:27:50.495Z,326.67
2023-04-23T00:30:16.955Z,320.03
2023-04-23T00:32:43.467Z,326.44
2023-04-23T00:35:10.132Z,327.30
2023-04-23T00:37:36.688Z,331.78
2023-04-23T00:40:03.214Z,330.42
2023-04-23T00:42:29.693Z,324.58
2023-04-23T00:44:56.239Z,321.32
2023-04-23T00:47:22.772Z,323.96
2023-04-23T00:49:49.355Z,328.83
2023-04-23T00:52:15.884Z,323.91
2023-04-23T00:54:42.673Z,321.46
2023-04-23T00:57:09.425Z,310.05
2023-04-23T00:59:35.984Z,310.73
2023-04-23T01:02:02.605Z,316.58
2023-04-23T01:04:29.140Z,310.59
2023-04-23T01:06:55.766Z,313.50
2023-04-23T01:09:22.382Z,311.20
2023-04-23T01:11:48.931Z,313.08
2023-04-23T01:14:15.459Z,306.39
2023-04-23T01:16:41.963Z,305.79
2023-04-23T01:19:08.405Z,309.75
2023-04-23T01:21:34.913Z,309.81
2023-04-23T01:24:01.449Z,316.20
2023-04-23T01:26:27.947Z,302.23
2023-04-23T01:28:54.466Z,299.29
2023-04-23T01:31:20.981Z,299.12
2023-04-23T01:33:47.609Z,301.50
2023-04-23T01:36:14.032Z,305.78
2023-04-23T01:38:40.616Z,301.03
2023-04-23T01:41:07.130Z,294.20
2023-04-23T01:43:33.559Z,297.15
2023-04-23T01:46:00.113Z,298.72
2023-04-23T01:48:26.619Z,297.50
2023-04-23T01:50:53.272Z,291.82
2023-04-23T01:53:19.737Z,293.93
2023-04-23T01:55:46.235Z,297.46
2023-04-23T01:58:12.844Z,296.06
2023-04-23T02:00:39.316Z,298.25
2023-04-23T02:03:06.329Z,294.06
2023-04-23T02:05:33.002Z,291.39
2023-04-23T02:07:59.678Z,289.68
2023-04-23T02:10:26.197Z,293.29
2023-04-23T02:12:52.724Z,293.90
2023-04-23T02:15:19.272Z,285.77
2023-04-23T02:17:45.741Z,283.84
2023-04-23T02:20:12.317Z,284.86
2023-04-23T02:22:38.843Z,283.25
2023-04-23T02:25:05.251Z,278.20
2023-04-23T02:27:31.771Z,281.06
2023-04-23T02:29:58.425Z,279.92
2023-04-23T02:32:24.968Z,282.11
2023-04-23T02:34:51.566Z,273.42
2023-04-23T02:37:18.078Z,276.35
2023-04-23T02:39:44.593Z,280.82
2023-04-23T02:42:11.192Z,279.41
2023-04-23T02:44:37.745Z,273.57
2023-04-23T02:47:04.351Z,270.85
2023-04-23T02:49:30.947Z,276.09
2023-04-23T02:51:57.559Z,274.68
2023-04-23T02:54:24.114Z,271.00
2023-04-23T02:56:50.704Z,271.43
2023-04-23T02:59:17.233Z,271.26
2023-04-23T03:01:43.767Z,273.36
2023-04-23T03:04:10.634Z,270.97
2023-04-23T03:06:37.314Z,274.84
2023-04-23T03:09:03.828Z,269.02
2023-04-23T03:11:30.327Z,269.25
2023-04-23T03:13:56.875Z,264.57
2023-04-23T03:16:23.497Z,265.15
2023-04-23T03:18:50.099Z,263.96
2023-04-23T03:21:16.665Z,264.36
2023-04-23T03:23:43.210Z,261.61
2023-04-23T03:26:09.700Z,261.59
2023-04-23T03:28:36.177Z,259.38
2023-04-23T03:31:02.798Z,259.00
2023-04-23T03:33:29.329Z,266.91
2023-04-23T03:35:55.813Z,263.17
2023-04-23T03:38:22.421Z,255.53
2023-04-23T03:40:48.843Z,261.90
2023-04-23T03:43:15.325Z,259.56
2023-04-23T03:45:41.942Z,259.38
2023-04-23T03:48:08.530Z,258.38
2023-04-23T03:50:35.038Z,260.80
2023-04-23T03:53:01.585Z,257.73
2023-04-23T03:55:28.021Z,253.49
2023-04-23T03:57:54.606Z,257.92
2023-04-23T04:00:21.140Z,254.16
2023-04-23T04:02:47.774Z,252.60
2023-04-23T04:05:14.627Z,252.56
2023-04-23T04:07:41.165Z,249.20
2023-04-23T04:10:07.737Z,246.36
2023-04-23T04:12:34.258Z,244.86
2023-04-23T04:15:00.770Z,242.16
2023-04-23T04:17:27.276Z,249.21
2023-04-23T04:19:53.820Z,240.42
2023-04-23T04:22:20.297Z,243.64
2023-04-23T04:24:46.835Z,244.56
2023-04-23T04:27:13.332Z,237.06
2023-04-23T04:29:39.879Z,238.52
2023-04-23T04:32:06.312Z,239.06
2023-04-23T04:34:32.756Z,235.67
2023-04-23T04:36:59.215Z,237.22
2023-04-23T04:39:25.766Z,236.60
2023-04-23T04:41:52.196Z,230.73
2023-04-23T04:44:18.763Z,230.16
2023-04-23T04:46:45.346Z,226.21
2023-04-23T04:49:11.837Z,229.53
2023-04-23T04:51:38.319Z,227.85
2023-04-23T04:54:04.821Z,229.67
2023-04-23T04:56:31.382Z,223.61
2023-04-23T04:58:57.897Z,221.37
2023-04-23T05:01:24.499Z,219.40
2023-04-23T05:03:51.182Z,220.72
2023-04-23T05:06:17.828Z,225.76
2023-04-23T05:08:44.351Z,219.62
2023-04-23T05:11:10.869Z,219.00
2023-04-23T05:13:37.378Z,221.50
2023-04-23T05:16:03.850Z,211.05
2023-04-23T05:18:30.412Z,214.91
2023-04-23T05:20:57.026Z,219.52
2023-04-23T05:23:23.545Z,219.28
2023-04-23T05:25:50.441Z,214.75
2023-04-23T05:28:17.888Z,214.71
2023-04-23T05:30:44.365Z,208.98
2023-04-23T05:33:10.853Z,210.69
2023-04-23T05:35:37.299Z,208.62
2023-04-23T05:38:06.675Z,205.68
2023-04-23T05:40:35.059Z,207.87
2023-04-23T05:43:01.505Z,204.45
2023-04-23T05:45:27.945Z,202.16
2023-04-23T05:47:54.403Z,199.54
2023-04-23T05:50:20.921Z,201.92
2023-04-23T05:52:47.380Z,203.48
2023-04-23T05:55:13.864Z,195.12
2023-04-23T05:57:40.313Z,196.56
2023-04-23T06:00:06.756Z,199.69
2023-04-23T06:02:33.286Z,190.57
2023-04-23T06:04:59.872Z,197.11
2023-04-23T06:07:26.650Z,191.09
2023-04-23T06:09:53.159Z,194.69
2023-04-23T06:12:19.584Z,193.49
2023-04-23T06:14:46.065Z,192.00
2023-04-23T06:17:13.474Z,190.42
2023-04-23T06:19:40.141Z,187.57
2023-04-23T06:22:06.581Z,189.32
2023-04-23T06:24:33.080Z,183.42
2023-04-23T06:26:59.610Z,185.03
2023-04-23T06:29:26.093Z,175.05
2023-04-23T06:31:52.663Z,179.78
2023-04-23T06:34:19.179Z,168.01
2023-04-23T06:36:45.675Z,171.60
2023-04-23T06:39:12.176Z,167.32
2023-04-23T06:41:38.632Z,163.80
2023-04-23T06:44:05.136Z,162.85
2023-04-23T06:46:31.579Z,161.86
2023-04-23T06:48:58.103Z,163.73
2023-04-23T06:51:24.610Z,155.22
2023-04-23T06:53:51.107Z,151.23
2023-04-23T06:56:17.605Z,149.81
2023-04-23T06:58:44.026Z,144.03
2023-04-23T07:01:10.487Z,145.85
2023-04-23T07:03:36.992Z,145.88
2023-04-23T07:06:03.514Z,142.21
2023-04-23T07:08:30.015Z,135.25
2023-04-23T07:10:56.490Z,74.80
2023-04-23T07:13:22.910Z,49.68
2023-04-23T07:15:49.424Z,58.24
2023-04-23T07:18:15.960Z,77.99
2023-04-23T07:20:42.411Z,88.16
2023-04-23T07:23:08.880Z,92.67
2023-04-23T07:25:35.405Z,85.63
2023-04-23T07:28:01.898Z,82.38
2023-04-23T07:30:28.362Z,78.28
2023-04-23T07:32:54.917Z,83.39
2023-04-23T07:35:21.482Z,81.74
2023-04-23T07:37:47.986Z,82.36
2023-04-23T07:40:14.797Z,80.06
2023-04-23T07:42:41.276Z,84.18
2023-04-23T07:45:08.106Z,79.76
2023-04-23T07:47:34.646Z,78.07
2023-04-23T07:50:01.235Z,80.73
2023-04-23T07:52:27.818Z,79.73
2023-04-23T07:54:54.336Z,79.16
2023-04-23T07:57:20.826Z,79.58
2023-04-23T07:59:47.246Z,78.08
2023-04-23T08:02:13.729Z,76.32
2023-04-23T08:04:40.435Z,75.60
2023-04-23T08:07:07.015Z,77.91
2023-04-23T08:09:33.437Z,76.66
2023-04-23T08:11:59.969Z,75.94
2023-04-23T08:14:26.485Z,76.06
2023-04-23T08:16:53.007Z,75.07
2023-04-23T08:19:19.478Z,73.30
2023-04-23T08:21:45.948Z,71.61
2023-04-23T08:24:12.452Z,69.92
2023-04-23T08:26:38.909Z,70.54
2023-04-23T08:29:05.460Z,68.87
2023-04-23T08:31:32.016Z,69.28
2023-04-23T08:33:58.537Z,66.35
2023-04-23T08:36:24.963Z,68.65
2023-04-23T08:38:51.429Z,67.78
2023-04-23T08:41:17.969Z,66.88
2023-04-23T08:43:44.486Z,64.55
2023-04-23T08:46:11.039Z,66.47
2023-04-23T08:48:37.502Z,62.92
2023-04-23T08:51:03.935Z,63.85
2023-04-23T08:53:30.340Z,62.31
2023-04-23T08:55:56.804Z,61.65
2023-04-23T08:58:23.229Z,61.07
2023-04-23T09:00:49.721Z,64.66
2023-04-23T09:03:16.193Z,59.07
2023-04-23T09:05:42.684Z,61.73
2023-04-23T09:08:09.132Z,58.89
2023-04-23T09:10:35.629Z,61.41
2023-04-23T09:13:02.047Z,59.92
2023-04-23T09:15:28.480Z,61.19
2023-04-23T09:17:54.944Z,58.96
2023-04-23T09:20:24.001Z,58.51
2023-04-23T09:22:50.469Z,57.95
2023-04-23T09:25:17.011Z,59.93
2023-04-23T09:27:43.546Z,56.80
2023-04-23T09:30:10.080Z,55.26
2023-04-23T09:32:36.564Z,54.70
2023-04-23T09:35:03.091Z,56.52
2023-04-23T09:37:29.628Z,56.81
2023-04-23T09:39:56.077Z,55.32
2023-04-23T09:42:22.596Z,54.15
2023-04-23T09:44:49.070Z,52.24
2023-04-23T09:47:15.610Z,54.56
2023-04-23T09:49:42.340Z,51.07
2023-04-23T09:52:09.185Z,52.30
2023-04-23T09:54:35.712Z,53.32
2023-04-23T09:57:02.216Z,55.36
2023-04-23T09:59:46.153Z,51.18
2023-04-23T10:02:15.130Z,53.45
2023-04-23T10:04:41.903Z,51.38
2023-04-23T10:07:18.906Z,50.66
2023-04-23T10:09:46.474Z,50.48
2023-04-23T10:12:33.329Z,51.54
2023-04-23T10:14:59.429Z,50.51
2023-04-23T10:17:25.940Z,48.95
2023-04-23T10:19:52.406Z,45.98
2023-04-23T10:22:20.042Z,46.11
2023-04-23T10:24:47.912Z,48.31
2023-04-23T10:27:27.015Z,49.93
2023-04-23T10:29:59.693Z,46.69
2023-04-23T10:32:26.273Z,48.50
2023-04-23T10:34:52.714Z,47.88
2023-04-23T10:37:19.254Z,47.58
2023-04-23T10:39:46.092Z,47.29
2023-04-23T10:42:12.775Z,48.54
2023-04-23T10:47:08.796Z,53.31
2023-04-23T10:49:35.424Z,52.66
2023-04-23T10:54:31.791Z,53.45
2023-04-23T10:56:58.332Z,50.55
2023-04-23T10:59:24.847Z,51.13
2023-04-23T11:01:51.616Z,51.49
2023-04-23T11:04:18.792Z,50.75
2023-04-23T11:06:45.629Z,48.28
2023-04-23T11:09:12.365Z,51.31
2023-04-23T11:11:38.868Z,50.92
2023-04-23T11:14:05.359Z,46.97
2023-04-23T11:16:32.304Z,47.97
2023-04-23T11:18:58.920Z,47.73
2023-04-23T11:21:25.346Z,47.15
2023-04-23T11:23:51.866Z,44.19
2023-04-23T11:26:18.371Z,47.88
2023-04-23T11:28:44.950Z,48.27
2023-04-23T11:31:11.591Z,45.99
2023-04-23T11:33:38.297Z,45.27
2023-04-23T11:36:04.798Z,45.72
2023-04-23T11:38:31.338Z,47.55
2023-04-23T11:40:57.828Z,46.26
2023-04-23T11:43:24.308Z,45.51
2023-04-23T11:45:50.842Z,45.70
2023-04-23T11:48:17.642Z,45.22
2023-04-23T11:50:44.619Z,45.96
2023-04-23T11:53:11.389Z,44.44
2023-04-23T11:55:37.840Z,40.82
2023-04-23T11:58:04.377Z,43.15
2023-04-23T12:00:31.061Z,43.55
2023-04-23T12:02:57.953Z,41.42
2023-04-23T12:05:24.981Z,42.90
2023-04-23T12:07:51.665Z,44.13
2023-04-23T12:10:18.283Z,43.18
2023-04-23T12:12:44.759Z,43.48
2023-04-23T12:15:11.272Z,44.21
2023-04-23T12:17:37.818Z,41.16
2023-04-23T12:20:04.252Z,41.77
2023-04-23T12:22:30.907Z,40.82
2023-04-23T12:24:57.612Z,41.98
2023-04-23T12:27:24.154Z,41.97
2023-04-23T12:29:50.656Z,40.38
2023-04-23T12:32:17.191Z,41.44
2023-04-23T12:34:43.921Z,40.30
2023-04-23T12:37:10.470Z,42.10
2023-04-23T12:39:36.930Z,39.29
2023-04-23T12:42:03.402Z,39.83
2023-04-23T12:44:29.916Z,40.21
2023-04-23T12:46:57.685Z,38.79
2023-04-23T12:49:24.505Z,38.90
2023-04-23T12:51:50.920Z,36.71
2023-04-23T12:54:17.408Z,36.61
2023-04-23T12:56:43.912Z,37.07
2023-04-23T12:59:10.421Z,38.42
2023-04-23T13:01:37.032Z,37.96
2023-04-23T13:04:03.619Z,39.20
2023-04-23T13:06:30.240Z,38.61
2023-04-23T13:08:56.782Z,37.77
2023-04-23T13:11:23.202Z,37.72
2023-04-23T13:13:49.627Z,38.43
2023-04-23T13:16:16.229Z,36.89
2023-04-23T13:18:42.754Z,37.91
2023-04-23T13:21:09.257Z,36.50
2023-04-23T13:23:35.750Z,36.98
2023-04-23T13:26:02.205Z,35.13
2023-04-23T13:28:28.690Z,37.36
2023-04-23T13:30:55.112Z,37.78
2023-04-23T13:33:21.621Z,37.12
2023-04-23T13:35:48.098Z,33.47
2023-04-23T13:38:14.537Z,35.63
2023-04-23T13:40:41.053Z,29.53
2023-04-23T13:43:07.496Z,31.34
2023-04-23T13:45:34.080Z,32.54
2023-04-23T13:48:00.649Z,31.12
2023-04-23T13:50:27.229Z,26.81
2023-04-23T13:52:53.654Z,25.54
2023-04-23T13:55:20.072Z,23.68
2023-04-23T13:57:46.546Z,23.77
2023-04-23T14:00:13.085Z,21.53
2023-04-23T14:02:39.623Z,23.26
2023-04-23T14:05:06.169Z,22.25
2023-04-23T14:07:32.623Z,22.77
2023-04-23T14:09:59.099Z,23.51
2023-04-23T14:12:25.520Z,20.70
2023-04-23T14:14:51.987Z,20.41
2023-04-23T14:17:18.491Z,18.13
2023-04-23T14:19:44.982Z,21.14
2023-04-23T14:22:11.484Z,20.01
2023-04-23T14:24:37.981Z,20.80
2023-04-23T14:27:05.784Z,17.66
2023-04-23T14:29:32.528Z,16.72
2023-04-23T14:31:59.054Z,15.64
2023-04-23T14:34:25.587Z,15.25
2023-04-23T14:36:52.061Z,15.37
2023-04-23T14:39:18.532Z,17.90
2023-04-23T14:41:45.041Z,17.39
2023-04-23T14:44:11.525Z,15.49
2023-04-23T14:46:38.184Z,16.71
2023-04-23T14:49:04.798Z,17.08
2023-04-23T14:51:31.317Z,15.63
2023-04-23T14:53:57.875Z,18.16
2023-04-23T14:56:24.398Z,15.78
2023-04-23T14:58:50.921Z,17.05
2023-04-23T15:01:17.554Z,18.61
2023-04-23T15:06:11.209Z,16.17
2023-04-23T15:08:37.632Z,17.51
2023-04-23T15:11:04.127Z,15.67
2023-04-23T15:13:30.596Z,17.37
2023-04-23T15:15:57.129Z,17.51
2023-04-23T15:18:23.807Z,17.48
2023-04-23T15:20:50.309Z,19.04
2023-04-23T15:23:16.783Z,19.73
2023-04-23T15:25:43.274Z,21.24
2023-04-23T15:28:09.739Z,20.74
2023-04-23T15:30:36.185Z,20.98
2023-04-23T15:33:02.686Z,21.10
2023-04-23T15:35:29.238Z,20.84
2023-04-23T15:37:55.831Z,20.29
2023-04-23T15:40:22.347Z,21.84
2023-04-23T15:42:48.798Z,21.13
2023-04-23T15:45:15.231Z,19.23
2023-04-23T15:47:41.847Z,19.33
2023-04-23T15:50:09.741Z,22.52
2023-04-23T15:52:36.194Z,20.28
2023-04-23T15:55:02.890Z,17.59
2023-04-23T15:57:29.337Z,19.36
2023-04-23T15:59:55.841Z,17.46
2023-04-23T16:02:22.459Z,13.44
2023-04-23T16:04:49.070Z,11.38
2023-04-23T16:07:15.685Z,7.88
2023-04-23T16:09:42.497Z,7.13
2023-04-23T16:12:10.619Z,8.82
2023-04-23T16:14:37.294Z,9.39
2023-04-23T16:17:03.800Z,9.35
2023-04-23T16:19:30.257Z,8.86
2023-04-23T16:21:56.789Z,9.81
2023-04-23T16:24:26.291Z,8.52
2023-04-23T16:26:52.716Z,9.09
2023-04-23T16:29:22.513Z,9.73
2023-04-23T16:31:49.618Z,10.43
2023-04-23T16:34:16.185Z,9.08
2023-04-23T16:36:42.747Z,9.55
2023-04-23T16:39:11.729Z,9.57
2023-04-23T16:41:38.316Z,10.71
2023-04-23T16:44:04.986Z,12.25
2023-04-23T16:46:31.815Z,11.46
2023-04-23T16:48:58.500Z,9.70
2023-04-23T16:51:25.330Z,10.44
2023-04-23T16:53:51.894Z,11.73
2023-04-23T16:56:18.509Z,11.26
2023-04-23T16:58:44.931Z,11.56
2023-04-23T17:01:11.397Z,11.76
2023-04-23T17:03:38.002Z,12.47
2023-04-23T17:06:04.691Z,12.36
2023-04-23T17:08:31.201Z,10.34
2023-04-23T17:10:57.659Z,11.01
2023-04-23T17:13:24.173Z,11.08
2023-04-23T17:15:50.688Z,12.11
2023-04-23T17:18:17.320Z,24.16
2023-04-23T17:20:43.815Z,161.34
2023-04-23T17:23:10.327Z,160.87
2023-04-23T17:25:36.851Z,154.56
2023-04-23T17:28:03.297Z,75.23
2023-04-23T17:30:29.829Z,71.38
2023-04-23T17:32:56.396Z,50.26
2023-04-23T17:35:23.061Z,32.01
2023-04-23T17:37:49.519Z,33.08
2023-04-23T17:40:16.073Z,27.63
2023-04-23T17:42:42.740Z,25.26
2023-04-23T17:45:09.188Z,26.60
2023-04-23T17:47:35.768Z,22.38
2023-04-23T17:50:02.424Z,21.25
2023-04-23T17:52:29.129Z,20.78
2023-04-23T17:54:55.661Z,16.02
2023-04-23T17:57:22.160Z,15.00
2023-04-23T17:59:48.702Z,13.53
2023-04-23T18:02:15.179Z,14.18
2023-04-23T18:04:41.776Z,12.68
2023-04-23T18:07:08.311Z,12.08
2023-04-23T18:09:34.803Z,12.60
2023-04-23T18:12:01.279Z,12.09
2023-04-23T18:14:27.782Z,10.95
2023-04-23T18:16:54.462Z,10.87
2023-04-23T18:19:21.048Z,11.61
2023-04-23T18:21:47.581Z,13.28
2023-04-23T18:24:14.054Z,12.13
2023-04-23T18:26:40.515Z,12.82
2023-04-23T18:29:07.041Z,11.81
2023-04-23T18:31:33.756Z,12.30
2023-04-23T18:34:00.286Z,12.14
2023-04-23T18:36:26.838Z,14.07
2023-04-23T18:38:53.383Z,13.06
2023-04-23T18:41:19.930Z,14.45
2023-04-23T18:43:46.372Z,15.04
2023-04-23T18:46:12.974Z,11.66
2023-04-23T18:48:39.551Z,13.29
2023-04-23T18:51:06.201Z,13.84
2023-04-23T18:53:32.766Z,26.51
2023-04-23T18:55:59.248Z,21.47
2023-04-23T18:58:25.778Z,17.43
2023-04-23T19:00:54.295Z,15.55
2023-04-23T19:03:26.850Z,11.74
2023-04-23T19:05:54.071Z,14.20
2023-04-23T19:08:20.545Z,12.64
2023-04-23T19:10:47.077Z,13.97
2023-04-23T19:13:13.635Z,13.42
2023-04-23T19:15:40.132Z,13.57
2023-04-23T19:18:06.616Z,16.40
2023-04-23T19:20:33.117Z,14.43
2023-04-23T19:22:59.664Z,13.65
2023-04-23T19:25:26.152Z,17.08
2023-04-23T19:27:52.642Z,16.74
2023-04-23T19:30:19.101Z,16.39
2023-04-23T19:32:45.554Z,14.02
2023-04-23T19:35:12.090Z,17.69
2023-04-23T19:37:38.673Z,19.42
2023-04-23T19:40:05.239Z,16.56
2023-04-23T19:42:31.761Z,18.48
2023-04-23T19:44:58.358Z,15.99
2023-04-23T19:47:24.947Z,17.05
2023-04-23T19:49:51.494Z,18.98
2023-04-23T19:52:18.054Z,16.25
2023-04-23T19:54:44.624Z,12.91
2023-04-23T19:57:13.001Z,12.55
2023-04-23T19:59:39.579Z,14.58
2023-04-23T20:02:06.186Z,15.78
2023-04-23T20:04:32.759Z,13.48
2023-04-23T20:06:59.211Z,12.41
2023-04-23T20:09:25.785Z,12.23
2023-04-23T20:11:52.314Z,12.16
2023-04-23T20:14:19.674Z,11.25
2023-04-23T20:16:46.208Z,9.94
2023-04-23T20:19:12.807Z,10.17
2023-04-23T20:21:39.292Z,10.84
2023-04-23T20:24:05.818Z,10.41
2023-04-23T20:26:32.478Z,10.27
2023-04-23T20:28:58.998Z,26.67
2023-04-23T20:31:25.615Z,182.93
2023-04-23T20:33:52.141Z,101.52
2023-04-23T20:36:18.611Z,111.45
2023-04-23T20:38:46.192Z,35.64
2023-04-23T20:41:12.815Z,19.86
2023-04-23T20:43:42.277Z,15.15
2023-04-23T20:46:08.861Z,13.80
2023-04-23T20:48:35.511Z,12.72
2023-04-23T20:51:02.094Z,15.11
2023-04-23T20:53:28.623Z,15.31
2023-04-23T20:55:55.140Z,16.31
2023-04-23T20:58:21.632Z,12.54
2023-04-23T21:00:48.191Z,10.68
2023-04-23T21:03:14.928Z,10.24
2023-04-23T21:05:41.575Z,8.66
2023-04-23T21:08:08.090Z,8.55
2023-04-23T21:10:34.662Z,9.78
2023-04-23T21:13:01.253Z,10.27
2023-04-23T21:15:27.846Z,10.04
2023-04-23T21:17:54.312Z,9.15
2023-04-23T21:20:20.826Z,9.20
2023-04-23T21:22:47.321Z,10.40
2023-04-23T21:25:13.850Z,9.27
2023-04-23T21:27:40.319Z,11.13
2023-04-23T21:30:06.780Z,11.15
2023-04-23T21:32:33.293Z,12.12
2023-04-23T21:34:59.738Z,17.98
2023-04-23T21:37:26.251Z,17.31
2023-04-23T21:39:52.792Z,15.68
2023-04-23T21:42:19.246Z,13.98
2023-04-23T21:44:45.697Z,11.19
2023-04-23T21:47:12.328Z,8.11
2023-04-23T21:49:38.844Z,7.97
2023-04-23T21:52:05.288Z,6.95
2023-04-23T21:54:31.803Z,5.79
2023-04-23T21:56:58.380Z,5.78
2023-04-23T21:59:24.971Z,6.27
2023-04-23T22:01:51.520Z,5.77
2023-04-23T22:04:18.118Z,6.07
2023-04-23T22:06:47.689Z,6.08
2023-04-23T22:09:14.291Z,3.78
2023-04-23T22:11:44.174Z,4.62
2023-04-23T22:14:15.553Z,9.56
2023-04-23T22:16:42.131Z,4.31
2023-04-23T22:19:08.612Z,4.33
2023-04-23T22:21:35.117Z,4.88
2023-04-23T22:24:01.656Z,4.90
2023-04-23T22:26:28.138Z,3.52
2023-04-23T22:28:54.693Z,3.41
2023-04-23T22:31:21.112Z,3.29
2023-04-23T22:33:47.669Z,3.28
2023-04-23T22:36:14.152Z,2.52
2023-04-23T22:38:40.620Z,3.29
2023-04-23T22:41:07.122Z,2.71
2023-04-23T22:43:33.747Z,2.75
2023-04-23T22:46:00.256Z,2.33
2023-04-23T22:48:26.814Z,3.23
2023-04-23T22:50:53.207Z,2.59
2023-04-23T22:53:19.890Z,2.57
2023-04-23T22:55:46.502Z,3.38
2023-04-23T22:58:12.912Z,2.07
2023-04-23T23:00:39.475Z,2.45
2023-04-23T23:03:06.057Z,3.11
2023-04-23T23:05:32.653Z,2.72
2023-04-23T23:07:59.126Z,3.57
2023-04-23T23:10:25.610Z,3.87
2023-04-23T23:12:52.083Z,6.85
2023-04-23T23:15:18.601Z,5.33
2023-04-23T23:17:45.211Z,5.23
2023-04-23T23:20:11.708Z,3.92
2023-04-23T23:22:38.283Z,3.48
2023-04-23T23:25:04.736Z,2.89
2023-04-23T23:27:31.305Z,2.41
2023-04-23T23:29:57.767Z,2.64
2023-04-23T23:32:24.279Z,2.62
2023-04-23T23:34:50.735Z,2.83
2023-04-23T23:37:17.327Z,2.79
2023-04-23T23:39:44.062Z,3.79
2023-04-23T23:42:10.674Z,4.27
2023-04-23T23:44:37.291Z,2.84
2023-04-23T23:47:03.921Z,2.92
2023-04-23T23:49:30.670Z,1.85
2023-04-23T23:51:57.294Z,2.25
2023-04-23T23:54:23.837Z,3.67
2023-04-23T23:56:50.296Z,2.73
2023-04-23T23:59:16.809Z,3.10
